Time;durP1;ratioP1;P1;durP2;ratioP2;P2;SDS_P1;SDS_P2;PMS_P1;PMS_P2;Temp;Humidity;BMP_temperature;BMP_pressure;BME280_temperature;BME280_humidity;BME280_pressure;Samples;Min_cycle;Max_cycle;Signal;HPM_P1;HPM_P2
2022/04/06 00:01:11;;;;;;;;;9.67;6.67;;;;;24.18;27.69;100609.06;5052963;28;45436;-79
2022/04/06 00:03:36;;;;;;;;;3.00;3.00;;;;;24.50;27.45;100605.06;5053075;28;45426;-79
2022/04/06 00:06:02;;;;;;;;;5.33;3.33;;;;;23.16;27.75;100532.56;5053649;28;45392;-79
2022/04/06 00:08:27;;;;;;;;;4.00;3.00;;;;;24.85;26.73;100628.97;5052567;28;45395;-79
2022/04/06 00:10:52;;;;;;;;;1.67;1.67;;;;;23.80;27.08;100626.72;5053912;28;45840;-78
2022/04/06 00:13:18;;;;;;;;;2.00;2.00;;;;;24.59;26.30;100620.94;5053574;28;46617;-79
2022/04/06 00:15:43;;;;;;;;;3.67;2.33;;;;;24.35;27.04;100603.84;5053517;28;45554;-79
2022/04/06 00:18:09;;;;;;;;;3.67;2.00;;;;;24.44;26.74;100589.94;5052016;28;45477;-80
2022/04/06 00:20:35;;;;;;;;;4.33;2.00;;;;;24.76;26.42;100622.97;5053645;28;45600;-80
2022/04/06 00:23:00;;;;;;;;;3.50;2.25;;;;;24.64;26.51;100577.38;5013169;28;1144116;-80
2022/04/06 00:25:26;;;;;;;;;2.00;1.67;;;;;23.81;26.28;100540.91;5054670;28;45347;-80
2022/04/06 00:27:51;;;;;;;;;5.67;4.33;;;;;24.15;26.87;100612.78;5055043;28;45471;-80
2022/04/06 00:30:17;;;;;;;;;5.00;4.00;;;;;24.48;26.27;100615.06;5054917;28;45621;-80
2022/04/06 00:32:42;;;;;;;;;4.67;3.67;;;;;24.31;26.06;100591.38;5052944;28;47632;-80
2022/04/06 00:37:51;;;;;;;;;2.00;2.00;;;;;24.61;25.64;100599.19;5054671;28;45361;-80
2022/04/06 00:40:19;;;;;;;;;2.00;2.00;;;;;24.58;25.74;100589.31;5054954;28;45622;-80
2022/04/06 00:42:46;;;;;;;;;1.00;1.00;;;;;23.68;26.37;100558.59;5054260;28;46047;-80
2022/04/06 00:45:12;;;;;;;;;1.67;1.67;;;;;23.38;26.30;100450.56;5054646;28;45331;-80
2022/04/06 00:47:37;;;;;;;;;4.00;1.00;;;;;24.78;25.61;100588.53;5054342;28;45353;-80
2022/04/06 00:50:03;;;;;;;;;2.00;1.00;;;;;24.49;25.42;100555.34;5054584;28;45379;-80
2022/04/06 00:52:29;;;;;;;;;4.67;1.00;;;;;24.63;25.19;100573.78;5054541;28;46409;-80
2022/04/06 00:54:55;;;;;;;;;1.00;1.00;;;;;24.22;25.53;100567.34;5054292;28;45301;-80
2022/04/06 00:57:20;;;;;;;;;1.00;1.00;;;;;24.08;26.30;100586.88;5054701;28;45320;-80
2022/04/06 00:59:47;;;;;;;;;2.33;1.00;;;;;24.19;26.29;100556.63;5054295;28;45383;-80
2022/04/06 01:02:13;;;;;;;;;1.00;1.00;;;;;25.07;25.12;100563.78;5054111;28;46452;-80
2022/04/06 01:04:39;;;;;;;;;2.00;1.00;;;;;24.94;24.58;100511.88;5054038;28;45428;-80
2022/04/06 01:07:04;;;;;;;;;1.33;1.00;;;;;24.92;24.82;100520.09;5054656;28;45539;-80
2022/04/06 01:09:30;;;;;;;;;1.00;1.00;;;;;24.82;25.25;100521.44;5054277;28;45449;-80
2022/04/06 01:11:56;;;;;;;;;0.00;0.00;;;;;24.73;25.60;100557.13;5054868;28;45426;-80
2022/04/06 01:14:21;;;;;;;;;3.00;1.00;;;;;24.74;25.99;100570.63;5057646;28;45490;-80
2022/04/06 01:17:00;;;;;;;;;1.00;1.00;;;;;24.60;25.92;100540.47;5057298;28;45459;-79
2022/04/06 01:19:34;;;;;;;;;1.00;0.00;;;;;25.03;25.15;100541.31;5057554;28;45345;-80
2022/04/06 01:22:01;;;;;;;;;1.00;1.00;;;;;24.90;25.96;100540.09;5057403;28;45398;-80
2022/04/06 01:24:27;;;;;;;;;1.00;1.00;;;;;24.45;26.19;100493.19;5057382;28;45393;-80
2022/04/06 01:26:53;;;;;;;;;1.67;1.00;;;;;24.95;25.84;100541.66;5057410;28;45511;-80
2022/04/06 01:29:19;;;;;;;;;1.00;1.00;;;;;24.87;25.91;100532.09;5057566;28;45539;-80
2022/04/06 01:31:44;;;;;;;;;2.67;2.00;;;;;24.47;26.33;100553.63;5056698;28;45415;-80
2022/04/06 01:34:09;;;;;;;;;0.00;0.00;;;;;24.78;26.53;100555.06;5057389;28;45522;-80
2022/04/06 01:36:35;;;;;;;;;2.67;2.00;;;;;24.12;26.67;100466.53;5057468;28;45403;-80
2022/04/06 01:39:00;;;;;;;;;1.67;1.67;;;;;24.35;27.06;100548.75;5057462;28;45422;-79
2022/04/06 01:41:32;;;;;;;;;3.00;1.33;;;;;24.13;27.18;100560.47;5056894;28;51646;-79
2022/04/06 01:43:58;;;;;;;;;0.00;0.00;;;;;24.29;27.56;100547.19;5056892;28;45320;-80
2022/04/06 01:46:23;;;;;;;;;2.00;1.00;;;;;23.83;27.60;100543.59;5057240;28;45396;-80
2022/04/06 01:54:17;;;;;;;;;2.33;1.00;;;;;24.03;26.88;100491.34;5057024;28;45246;-79
2022/04/06 01:56:42;;;;;;;;;1.00;1.00;;;;;24.48;26.95;100550.00;5072418;28;45342;-80
2022/04/06 01:59:07;;;;;;;;;1.00;1.00;;;;;23.85;27.21;100460.41;5056817;28;45368;-80
2022/04/06 02:01:36;;;;;;;;;2.67;2.00;;;;;24.38;27.11;100545.91;5056909;28;46310;-80
2022/04/06 02:04:06;;;;;;;;;3.00;0.67;;;;;24.24;27.28;100541.06;5056905;28;45451;-80
2022/04/06 02:06:32;;;;;;;;;2.00;2.00;;;;;24.25;27.55;100532.00;5057152;28;45441;-79
2022/04/06 02:08:57;;;;;;;;;3.67;1.00;;;;;23.94;27.30;100493.47;5056638;28;45564;-80
2022/04/06 02:11:23;;;;;;;;;4.00;1.33;;;;;24.15;27.56;100524.22;5056644;28;45845;-80
2022/04/06 02:13:48;;;;;;;;;2.00;2.00;;;;;24.12;27.86;100523.47;5056338;28;45549;-80
2022/04/06 02:16:13;;;;;;;;;1.00;1.00;;;;;23.98;27.56;100532.19;5057017;28;45458;-80
2022/04/06 02:18:39;;;;;;;;;1.00;1.00;;;;;23.76;28.11;100516.72;5056822;28;45404;-80
2022/04/06 02:21:04;;;;;;;;;1.67;0.00;;;;;23.36;28.22;100506.56;5056650;28;46348;-79
2022/04/06 02:23:29;;;;;;;;;2.00;2.00;;;;;23.62;28.31;100533.53;5055373;28;45411;-79
2022/04/06 02:25:55;;;;;;;;;3.00;2.00;;;;;23.77;27.57;100487.84;5056680;28;45423;-80
2022/04/06 02:28:20;;;;;;;;;2.00;2.00;;;;;23.83;27.84;100527.34;5056457;28;45462;-80
2022/04/06 02:30:45;;;;;;;;;3.00;1.33;;;;;23.27;29.10;100518.63;5056131;28;45539;-79
2022/04/06 02:33:11;;;;;;;;;1.00;1.00;;;;;23.41;28.22;100462.13;5056595;28;45364;-78
2022/04/06 02:35:36;;;;;;;;;1.00;1.00;;;;;23.68;28.25;100520.69;5056287;28;45515;-78
2022/04/06 02:38:01;;;;;;;;;1.00;1.00;;;;;24.09;27.52;100502.81;5056370;28;45296;-79
2022/04/06 02:40:27;;;;;;;;;2.33;1.00;;;;;23.68;27.86;100501.72;5056432;28;46175;-79
2022/04/06 02:42:52;;;;;;;;;1.00;1.00;;;;;23.69;27.93;100506.22;5055845;28;45359;-78
2022/04/06 02:45:18;;;;;;;;;0.33;0.33;;;;;23.44;28.19;100510.72;5056473;28;45380;-78
2022/04/06 02:47:43;;;;;;;;;2.67;1.33;;;;;23.52;28.14;100513.16;5056245;28;45240;-78
2022/04/06 02:50:08;;;;;;;;;2.00;1.00;;;;;23.66;28.03;100511.75;5056098;28;45419;-78
2022/04/06 02:52:34;;;;;;;;;3.33;1.67;;;;;24.01;27.78;100504.94;5056215;28;45337;-78
2022/04/06 02:54:59;;;;;;;;;3.67;3.00;;;;;23.77;28.11;100506.78;5056161;28;45369;-79
2022/04/06 02:57:25;;;;;;;;;2.67;2.00;;;;;23.49;27.77;100464.56;5055827;28;45359;-78
2022/04/06 02:59:51;;;;;;;;;2.00;1.33;;;;;23.14;28.47;100431.63;5055893;28;46197;-78
2022/04/06 03:02:16;;;;;;;;;1.00;1.00;;;;;23.84;27.51;100496.56;5056027;28;45241;-78
2022/04/06 03:04:41;;;;;;;;;3.00;1.00;;;;;23.41;27.73;100448.59;5055792;28;45574;-79
2022/04/06 03:07:07;;;;;;;;;1.00;1.00;;;;;23.77;27.79;100477.00;5056114;28;45376;-78
2022/04/06 03:09:32;;;;;;;;;1.00;1.00;;;;;23.67;28.06;100484.63;5055913;28;45395;-78
2022/04/06 03:11:59;;;;;;;;;0.00;0.00;;;;;23.71;27.97;100434.78;5055447;28;45339;-78
2022/04/06 03:14:24;;;;;;;;;4.00;1.00;;;;;23.64;28.00;100493.72;5056115;28;45760;-78
2022/04/06 03:16:49;;;;;;;;;1.00;1.00;;;;;23.32;28.23;100459.81;5055910;28;45599;-78
2022/04/06 03:19:15;;;;;;;;;1.67;1.00;;;;;23.81;27.80;100481.31;5055301;28;54093;-79
2022/04/06 03:21:40;;;;;;;;;1.33;1.33;;;;;23.85;27.96;100498.34;5055542;28;45474;-78
2022/04/06 03:24:06;;;;;;;;;3.00;2.00;;;;;23.28;27.82;100407.59;5055374;28;45461;-79
2022/04/06 03:26:31;;;;;;;;;1.67;0.00;;;;;23.76;27.97;100456.25;5055606;28;45426;-79
2022/04/06 03:28:57;;;;;;;;;0.00;0.00;;;;;23.49;27.34;100437.47;5054335;28;46903;-78
2022/04/06 03:31:23;;;;;;;;;1.00;1.00;;;;;23.73;27.73;100416.63;5055484;28;45558;-78
2022/04/06 03:33:48;;;;;;;;;3.00;0.33;;;;;23.42;27.78;100453.06;5055593;28;45516;-78
2022/04/06 03:36:13;;;;;;;;;7.00;1.00;;;;;23.83;27.58;100441.53;5055280;28;45463;-78
2022/04/06 03:38:39;;;;;;;;;3.00;1.00;;;;;23.80;27.41;100426.28;5055271;28;45371;-78
2022/04/06 03:41:04;;;;;;;;;1.00;1.00;;;;;24.03;27.69;100462.41;5055024;28;45408;-78
2022/04/06 03:43:30;;;;;;;;;1.00;1.00;;;;;24.13;27.12;100465.59;5055519;28;45575;-77
2022/04/06 03:45:56;;;;;;;;;1.00;1.00;;;;;23.84;27.45;100458.66;5055403;28;45623;-79
2022/04/06 03:48:22;;;;;;;;;1.00;1.00;;;;;24.18;26.89;100433.78;5055344;28;46059;-78
2022/04/06 03:50:49;;;;;;;;;2.67;1.00;;;;;23.82;27.43;100461.41;5055189;28;45470;-78
2022/04/06 03:53:15;;;;;;;;;0.00;0.00;;;;;24.07;27.58;100457.75;5055282;28;45473;-78
2022/04/06 03:55:40;;;;;;;;;2.00;1.00;;;;;23.63;27.82;100445.06;5055131;28;45438;-78
2022/04/06 03:58:06;;;;;;;;;1.00;1.00;;;;;23.59;27.81;100457.81;5054922;28;45961;-78
2022/04/06 04:00:32;;;;;;;;;0.33;0.00;;;;;23.78;27.43;100444.44;5055389;28;45447;-78
2022/04/06 04:02:57;;;;;;;;;4.33;1.67;;;;;23.68;28.17;100444.84;5054946;28;45318;-78
2022/04/06 04:05:22;;;;;;;;;2.00;1.00;;;;;23.85;27.89;100447.75;5055276;28;45265;-78
2022/04/06 04:07:48;;;;;;;;;1.33;0.00;;;;;24.20;26.90;100439.13;5055149;28;46086;-78
2022/04/06 04:10:14;;;;;;;;;0.33;0.33;;;;;24.12;27.27;100450.28;5054648;28;45395;-79
2022/04/06 04:12:40;;;;;;;;;0.00;0.00;;;;;23.90;27.65;100437.63;5055157;28;45282;-78
2022/04/06 04:15:06;;;;;;;;;0.00;0.00;;;;;23.44;27.97;100431.34;5070542;28;45287;-79
2022/04/06 04:17:31;;;;;;;;;1.00;1.00;;;;;24.15;27.18;100447.47;5054917;28;46022;-78
2022/04/06 04:19:56;;;;;;;;;3.00;2.00;;;;;23.85;27.48;100419.78;5054931;28;45354;-79
2022/04/06 04:22:22;;;;;;;;;1.00;1.00;;;;;24.04;27.70;100445.19;5070715;28;45311;-79
2022/04/06 04:24:48;;;;;;;;;2.00;2.00;;;;;23.86;27.48;100387.22;5054239;28;45354;-79
2022/04/06 04:27:13;;;;;;;;;1.00;1.00;;;;;23.66;28.03;100444.06;5054749;28;45246;-79
2022/04/06 04:29:38;;;;;;;;;1.67;1.00;;;;;23.75;27.82;100443.66;5054776;28;45317;-80
2022/04/06 04:32:04;;;;;;;;;2.67;1.00;;;;;23.77;27.86;100412.84;5053107;28;45866;-79
2022/04/06 04:34:29;;;;;;;;;0.33;0.33;;;;;24.07;27.36;100427.94;5055005;28;45551;-80
2022/04/06 04:36:55;;;;;;;;;2.00;0.67;;;;;24.26;27.26;100439.75;5054574;28;46409;-79
2022/04/06 04:39:20;;;;;;;;;2.00;0.67;;;;;24.50;27.31;100434.22;5054487;28;45456;-79
2022/04/06 04:41:47;;;;;;;;;0.67;0.67;;;;;23.72;27.94;100400.44;5054728;28;45336;-80
2022/04/06 04:44:13;;;;;;;;;1.00;1.00;;;;;23.41;28.08;100380.91;5054587;28;45257;-80
2022/04/06 04:46:38;;;;;;;;;1.00;1.00;;;;;24.01;27.56;100428.16;5054769;28;46092;-80
2022/04/06 04:49:04;;;;;;;;;4.33;2.00;;;;;23.70;27.69;100380.66;5058000;28;45977;-80
2022/04/06 04:51:29;;;;;;;;;2.00;2.00;;;;;24.50;27.58;100426.06;5058284;28;45354;-80
2022/04/06 04:53:57;;;;;;;;;1.67;1.67;;;;;24.62;27.25;100422.81;5056386;28;45552;-80
2022/04/06 04:56:28;;;;;;;;;1.00;1.00;;;;;24.86;27.04;100419.09;5057874;28;46325;-80
2022/04/06 04:58:54;;;;;;;;;2.33;2.00;;;;;24.57;26.76;100362.47;5057455;28;45468;-80
2022/04/06 05:01:19;;;;;;;;;2.33;1.00;;;;;24.45;27.17;100384.72;5057726;28;45329;-79
2022/04/06 05:03:44;;;;;;;;;2.33;2.00;;;;;24.79;26.88;100375.94;5057913;28;45260;-79
2022/04/06 05:06:10;;;;;;;;;3.67;2.00;;;;;25.04;26.11;100368.50;5057594;28;47246;-84
2022/04/06 05:08:35;;;;;;;;;2.33;1.00;;;;;25.05;26.46;100376.56;5057905;28;45235;-83
2022/04/06 05:11:01;;;;;;;;;2.00;2.00;;;;;24.61;26.39;100364.13;5057752;28;45389;-82
2022/04/06 05:13:26;;;;;;;;;0.33;0.33;;;;;24.60;26.86;100385.88;5067320;28;45312;-82
2022/04/06 05:15:52;;;;;;;;;2.00;2.00;;;;;24.58;26.45;100361.50;5063908;27;46192;-82
2022/04/06 05:18:17;;;;;;;;;1.00;1.00;;;;;24.30;27.16;100353.72;5056867;28;45273;-82
2022/04/06 05:20:43;;;;;;;;;4.33;2.00;;;;;24.47;26.46;100378.28;5057947;28;45300;-82
2022/04/06 05:23:08;;;;;;;;;1.00;1.00;;;;;24.52;26.64;100364.50;5049031;28;45394;-83
2022/04/06 05:25:33;;;;;;;;;2.33;2.00;;;;;24.56;26.75;100397.81;5035794;28;52143;-84
2022/04/06 05:27:59;;;;;;;;;3.33;2.33;;;;;23.87;27.28;100288.78;5044413;28;45444;-83
2022/04/06 05:30:26;;;;;;;;;1.00;1.00;;;;;23.40;27.63;100280.81;5051900;28;45419;-82
2022/04/06 05:32:54;;;;;;;;;3.00;3.00;;;;;24.44;26.94;100399.22;5057346;28;45337;-80
2022/04/06 05:35:21;;;;;;;;;2.67;1.33;;;;;24.01;26.68;100280.03;5061962;28;45427;-81
2022/04/06 05:37:46;;;;;;;;;3.33;2.33;;;;;24.06;26.58;100275.28;5050878;28;45724;-82
2022/04/06 05:40:16;;;;;;;;;3.33;3.00;;;;;24.85;26.29;100388.34;5050552;28;45617;-81
2022/04/06 05:42:44;;;;;;;;;2.00;2.00;;;;;24.92;26.73;100400.69;5056810;27;45397;-77
2022/04/06 05:45:10;;;;;;;;;2.33;2.33;;;;;25.13;26.08;100404.22;5056190;28;46404;-78
2022/04/06 05:47:36;;;;;;;;;3.33;3.00;;;;;25.14;26.19;100400.53;5056861;28;45375;-81
2022/04/06 05:50:04;;;;;;;;;2.67;2.67;;;;;25.18;26.65;100401.28;5047591;28;45435;-79
2022/04/06 05:52:30;;;;;;;;;4.00;4.00;;;;;24.99;26.72;100407.59;5054359;28;45528;-83
2022/04/06 05:54:55;;;;;;;;;3.67;2.33;;;;;24.80;26.68;100404.84;5052722;28;46534;-82
2022/04/06 05:57:21;;;;;;;;;3.00;3.00;;;;;24.69;26.75;100381.88;5045180;28;45560;-81
2022/04/06 05:59:49;;;;;;;;;4.00;3.00;;;;;24.26;27.51;100390.06;5054107;28;45469;-84
2022/04/06 06:02:14;;;;;;;;;4.00;2.67;;;;;24.66;27.24;100382.91;5079421;27;45396;-81
2022/04/06 06:04:40;;;;;;;;;5.67;3.00;;;;;24.63;27.55;100405.59;5052638;28;45572;-81
2022/04/06 06:07:06;;;;;;;;;4.67;3.00;;;;;24.77;27.42;100387.84;5042458;28;45394;-81
2022/04/06 06:09:33;;;;;;;;;4.67;4.00;;;;;24.79;27.14;100378.66;5045871;28;45551;-81
2022/04/06 06:11:59;;;;;;;;;4.00;4.00;;;;;24.92;26.78;100384.41;5048417;28;45711;-81
2022/04/06 06:14:26;;;;;;;;;4.00;4.00;;;;;25.23;26.97;100401.97;5052929;27;45526;-81
2022/04/06 06:16:51;;;;;;;;;4.67;4.67;;;;;25.23;26.53;100368.47;5051153;28;45597;-81
2022/04/06 06:19:17;;;;;;;;;5.00;5.00;;;;;24.70;27.29;100346.53;5045813;28;45386;-81
2022/04/06 06:21:42;;;;;;;;;5.67;4.33;;;;;24.95;26.88;100399.66;5048397;28;45468;-81
2022/04/06 06:24:08;;;;;;;;;3.00;3.00;;;;;24.92;27.15;100400.69;5046897;28;45528;-81
2022/04/06 06:26:34;;;;;;;;;4.67;3.67;;;;;24.80;26.48;100347.88;5056542;28;45481;-81
2022/04/06 06:29:00;;;;;;;;;8.00;6.33;;;;;24.75;27.07;100339.09;5049792;28;45450;-81
2022/04/06 06:31:25;;;;;;;;;3.00;3.00;;;;;25.08;26.76;100394.53;5049134;28;46228;-81
2022/04/06 06:33:51;;;;;;;;;5.00;3.67;;;;;25.24;26.71;100389.25;5053618;28;46453;-81
2022/04/06 06:36:16;;;;;;;;;7.67;4.00;;;;;24.94;26.96;100393.34;5051174;28;45372;-81
2022/04/06 06:38:42;;;;;;;;;4.00;4.00;;;;;24.75;26.96;100359.88;5060659;28;45393;-81
2022/04/06 06:41:07;;;;;;;;;5.67;5.00;;;;;25.00;27.00;100400.31;5053738;28;45270;-81
2022/04/06 06:43:33;;;;;;;;;8.00;7.33;;;;;24.65;27.39;100392.88;5049073;28;46474;-81
2022/04/06 06:45:58;;;;;;;;;5.33;3.00;;;;;24.69;26.90;100335.75;5047135;28;45445;-81
2022/04/06 06:48:23;;;;;;;;;3.00;3.00;;;;;24.42;27.39;100301.66;5048291;28;45452;-81
2022/04/06 06:50:49;;;;;;;;;5.00;3.67;;;;;24.59;26.96;100352.41;5050659;28;45440;-81
2022/04/06 06:53:14;;;;;;;;;6.33;5.00;;;;;24.66;27.16;100326.81;5053408;28;45625;-81
2022/04/06 06:55:39;;;;;;;;;4.33;4.00;;;;;23.88;27.64;100239.06;5051880;28;45479;-81
2022/04/06 06:58:05;;;;;;;;;3.67;3.67;;;;;24.97;27.12;100357.91;5051314;28;45456;-81
2022/04/06 07:00:30;;;;;;;;;4.67;3.67;;;;;25.27;27.15;100384.53;5053195;28;45911;-81
2022/04/06 07:02:56;;;;;;;;;3.67;2.00;;;;;25.20;26.86;100384.91;5052095;28;45450;-81
2022/04/06 07:05:22;;;;;;;;;8.00;4.67;;;;;24.71;27.12;100363.69;5052697;28;45466;-81
2022/04/06 07:07:59;;;;;;;;;4.00;4.00;;;;;24.64;27.39;100385.69;5053097;28;45580;-82
2022/04/06 07:10:26;;;;;;;;;3.67;3.33;;;;;24.89;27.11;100386.38;5052073;28;45536;-82
2022/04/06 07:12:53;;;;;;;;;3.67;3.67;;;;;25.21;26.69;100373.13;5045324;28;46032;-81
2022/04/06 07:15:19;;;;;;;;;3.33;3.00;;;;;25.31;26.65;100379.84;5049190;28;45460;-82
2022/04/06 07:17:49;;;;;;;;;5.00;4.00;;;;;25.26;26.35;100360.19;5055235;28;45290;-81
2022/04/06 07:20:14;;;;;;;;;3.33;3.33;;;;;24.79;26.89;100318.97;5050579;28;45640;-82
2022/04/06 07:22:39;;;;;;;;;2.33;1.33;;;;;24.34;26.90;100268.59;5047518;28;45382;-82
2022/04/06 07:25:05;;;;;;;;;3.00;3.00;;;;;24.39;26.40;100203.34;5044324;28;45452;-82
2022/04/06 07:27:35;;;;;;;;;3.33;3.33;;;;;25.08;27.20;100370.13;5048008;28;45445;-82
2022/04/06 07:30:00;;;;;;;;;6.00;4.00;;;;;24.53;27.22;100333.72;5041804;28;45282;-82
2022/04/06 07:32:26;;;;;;;;;11.00;7.33;;;;;25.10;27.05;100305.78;5050767;28;46123;-82
2022/04/06 07:34:51;;;;;;;;;5.00;3.00;;;;;25.29;26.12;100314.78;5047780;28;46859;-81
2022/04/06 07:37:16;;;;;;;;;5.67;4.00;;;;;25.70;26.25;100331.81;5050717;28;46142;-81
2022/04/06 07:39:41;;;;;;;;;6.00;4.00;;;;;25.70;26.24;100280.22;5047314;28;45693;-81
2022/04/06 07:42:07;;;;;;;;;6.00;4.00;;;;;26.33;25.46;100359.34;5046053;28;45446;-82
2022/04/06 07:44:32;;;;;;;;;3.00;2.00;;;;;25.83;25.70;100281.31;5045608;28;45865;-81
2022/04/06 07:46:58;;;;;;;;;3.67;3.00;;;;;25.96;25.73;100323.22;5054553;28;45453;-82
2022/04/06 07:49:24;;;;;;;;;4.67;3.00;;;;;25.83;25.53;100305.78;5053607;28;45532;-81
2022/04/06 07:51:49;;;;;;;;;3.00;3.00;;;;;25.97;25.76;100353.97;5043507;28;45922;-81
2022/04/06 07:54:14;;;;;;;;;4.00;3.00;;;;;25.38;26.39;100318.88;5051626;28;45734;-81
2022/04/06 07:56:42;;;;;;;;;4.67;3.67;;;;;25.25;26.92;100355.72;5053640;28;45455;-81
2022/04/06 07:59:07;;;;;;;;;2.00;2.00;;;;;25.32;26.39;100306.50;5041059;28;45440;-81
2022/04/06 08:01:33;;;;;;;;;3.00;3.00;;;;;25.49;26.22;100357.25;5045773;28;45410;-81
2022/04/06 08:03:58;;;;;;;;;4.67;3.00;;;;;24.65;26.97;100267.19;5049530;28;46692;-81
2022/04/06 08:06:24;;;;;;;;;2.33;2.33;;;;;24.90;26.84;100315.75;5048273;27;45442;-81
2022/04/06 08:08:51;;;;;;;;;5.00;4.00;;;;;25.12;26.42;100303.88;5051189;28;45570;-81
2022/04/06 08:11:17;;;;;;;;;3.00;3.00;;;;;24.14;27.00;100197.22;5048948;28;46234;-81
2022/04/06 08:13:43;;;;;;;;;5.00;3.00;;;;;25.38;26.25;100310.75;5051600;28;45481;-83
2022/04/06 08:16:08;;;;;;;;;4.00;2.00;;;;;25.05;27.12;100296.97;5055801;28;45748;-82
2022/04/06 08:18:33;;;;;;;;;2.00;2.00;;;;;25.51;26.36;100327.28;5049996;27;45517;-82
2022/04/06 08:20:59;;;;;;;;;3.00;2.00;;;;;24.87;26.75;100274.34;5043428;28;47310;-82
2022/04/06 08:23:24;;;;;;;;;4.00;2.00;;;;;25.33;26.43;100330.00;5049434;28;45343;-82
2022/04/06 08:25:51;;;;;;;;;4.00;2.00;;;;;24.74;26.72;100253.22;5068273;28;45337;-82
2022/04/06 08:28:17;;;;;;;;;3.33;3.33;;;;;24.91;26.69;100293.09;5048533;28;45440;-82
2022/04/06 08:30:44;;;;;;;;;3.00;3.00;;;;;24.06;27.28;100231.03;5051682;28;46490;-81
2022/04/06 08:33:10;;;;;;;;;2.00;2.00;;;;;25.05;27.17;100325.00;5052976;28;45533;-83
2022/04/06 08:35:36;;;;;;;;;4.00;4.00;;;;;24.48;26.46;100213.72;5056726;28;45463;-82
2022/04/06 08:38:03;;;;;;;;;5.00;3.00;;;;;24.73;26.84;100259.59;5051684;28;45336;-82
2022/04/06 08:40:30;;;;;;;;;1.00;1.00;;;;;24.78;26.77;100246.69;5047861;28;46094;-82
2022/04/06 08:42:56;;;;;;;;;1.67;1.67;;;;;24.09;27.80;100320.34;5045833;28;45443;-82
2022/04/06 08:45:22;;;;;;;;;4.33;1.67;;;;;25.10;27.12;100328.34;5045051;28;45456;-84
2022/04/06 08:47:48;;;;;;;;;2.33;1.67;;;;;24.66;27.58;100317.78;5057811;27;45529;-83
2022/04/06 08:50:17;;;;;;;;;1.33;1.00;;;;;24.30;28.05;100321.19;5048096;28;45336;-80
2022/04/06 08:52:43;;;;;;;;;3.00;3.00;;;;;24.22;28.41;100313.44;5055382;28;45324;-80
2022/04/06 08:55:08;;;;;;;;;2.00;2.00;;;;;24.51;27.16;100273.25;5049311;28;45475;-80
2022/04/06 08:57:34;;;;;;;;;2.33;2.33;;;;;24.29;27.45;100255.28;5051667;28;45478;-81
2022/04/06 08:59:59;;;;;;;;;5.00;2.00;;;;;24.42;27.93;100284.53;5049817;28;46348;-80
2022/04/06 09:02:25;;;;;;;;;3.67;2.00;;;;;24.54;26.90;100217.97;5060460;28;45505;-81
2022/04/06 09:04:54;;;;;;;;;3.33;3.33;;;;;24.87;27.32;100283.34;5058047;27;45377;-81
2022/04/06 09:07:21;;;;;;;;;4.00;3.00;;;;;24.30;28.27;100305.84;5055871;27;45370;-80
2022/04/06 09:09:54;;;;;;;;;3.00;3.00;;;;;24.75;27.44;100311.06;5057671;27;45379;-80
2022/04/06 09:12:24;;;;;;;;;8.67;4.00;;;;;24.97;27.30;100300.94;5053896;28;45408;-80
2022/04/06 09:15:12;;;;;;;;;4.33;3.00;;;;;25.51;26.49;100301.03;5055296;28;45470;-80
2022/04/06 09:17:47;;;;;;;;;3.33;2.00;;;;;24.87;26.95;100229.06;5045793;28;46508;-80
2022/04/06 09:20:14;;;;;;;;;2.33;2.33;;;;;25.24;26.61;100242.66;5052984;27;45472;-79
2022/04/06 09:22:39;;;;;;;;;3.00;2.00;;;;;24.71;27.44;100309.44;5052468;28;45313;-79
2022/04/06 09:25:05;;;;;;;;;5.00;3.67;;;;;24.97;26.95;100268.38;5044722;28;45777;-81
2022/04/06 09:27:32;;;;;;;;;7.00;3.00;;;;;24.54;27.85;100305.63;5053653;28;45396;-82
2022/04/06 09:29:59;;;;;;;;;3.67;3.67;;;;;23.93;28.34;100230.72;5052176;28;45463;-80
2022/04/06 09:32:24;;;;;;;;;6.00;4.00;;;;;24.78;26.83;100270.19;5053503;28;45465;-86
2022/04/06 09:34:50;;;;;;;;;5.67;3.67;;;;;25.39;26.59;100298.94;5048427;28;45285;-85
2022/04/06 09:37:27;;;;;;;;;2.00;2.00;;;;;24.63;27.33;100299.81;5049955;28;45704;-83
2022/04/06 09:39:54;;;;;;;;;4.00;4.00;;;;;24.57;27.24;100240.44;5051937;28;45711;-84
2022/04/06 09:42:24;;;;;;;;;5.00;3.00;;;;;25.44;27.21;100290.53;5054345;28;45340;-85
2022/04/06 09:47:51;;;;;;;;;5.67;1.33;;;;;24.66;27.51;100310.53;5054658;28;45511;-84
2022/04/06 09:50:17;;;;;;;;;5.00;3.67;;;;;24.45;27.50;100298.81;5051088;28;45969;-79
2022/04/06 09:52:44;;;;;;;;;4.00;2.00;;;;;24.00;28.15;100291.81;5053776;28;45432;-80
2022/04/06 09:55:11;;;;;;;;;3.00;3.00;;;;;24.03;27.34;100122.81;5054223;28;45507;-80
2022/04/06 09:57:40;;;;;;;;;4.67;4.00;;;;;25.24;27.15;100300.53;5049278;28;45429;-80
2022/04/06 10:00:07;;;;;;;;;3.00;3.00;;;;;25.43;27.06;100300.53;5047993;28;45523;-80
2022/04/06 10:02:34;;;;;;;;;3.67;3.67;;;;;25.09;26.80;100277.75;5047483;28;45279;-80
2022/04/06 10:05:02;;;;;;;;;3.00;2.00;;;;;25.29;27.09;100284.91;5050896;28;45424;-81
2022/04/06 10:07:27;;;;;;;;;5.00;4.00;;;;;25.21;26.87;100249.09;5051926;28;45341;-82
2022/04/06 10:09:54;;;;;;;;;3.00;3.00;;;;;25.49;26.71;100220.59;5050533;28;45252;-82
2022/04/06 10:12:20;;;;;;;;;3.00;3.00;;;;;25.63;26.68;100296.81;5053344;28;45450;-81
2022/04/06 10:14:46;;;;;;;;;4.67;4.00;;;;;24.89;27.65;100276.00;5058896;28;45474;-80
2022/04/06 10:17:13;;;;;;;;;5.67;4.00;;;;;25.08;27.26;100302.25;5056115;28;45639;-81
2022/04/06 10:19:47;;;;;;;;;3.00;3.00;;;;;25.40;26.51;100298.00;5054954;28;46169;-81
2022/04/06 10:22:37;;;;;;;;;4.33;3.67;;;;;25.72;26.13;100292.72;5048650;28;45490;-81
2022/04/06 10:25:14;;;;;;;;;3.67;2.33;;;;;25.71;26.03;100290.09;5051295;28;45432;-80
2022/04/06 10:27:44;;;;;;;;;3.00;3.00;;;;;25.45;26.37;100263.31;5049062;28;45314;-81
2022/04/06 10:30:11;;;;;;;;;4.33;3.67;;;;;25.55;26.21;100268.28;5051506;28;45410;-80
2022/04/06 10:32:37;;;;;;;;;1.00;1.00;;;;;25.62;26.09;100270.59;5042842;28;45485;-80
2022/04/06 10:35:22;;;;;;;;;3.67;3.00;;;;;25.39;26.52;100258.19;5052843;28;45559;-81
2022/04/06 10:37:51;;;;;;;;;4.33;3.67;;;;;25.52;26.21;100243.00;5057693;28;45412;-80
2022/04/06 10:40:17;;;;;;;;;4.00;4.00;;;;;25.37;26.67;100204.91;5048979;28;45527;-80
2022/04/06 10:42:45;;;;;;;;;4.67;3.67;;;;;26.24;25.88;100267.38;5056911;28;45403;-80
2022/04/06 10:45:29;;;;;;;;;3.33;3.00;;;;;25.50;26.38;100265.81;5077791;27;45435;-80
2022/04/06 10:48:15;;;;;;;;;5.00;3.00;;;;;25.34;26.74;100206.84;5054604;28;45604;-80
2022/04/06 10:50:42;;;;;;;;;3.33;3.33;;;;;25.97;26.25;100253.41;5051495;28;45397;-80
2022/04/06 10:53:20;;;;;;;;;3.33;3.33;;;;;26.12;25.65;100251.75;5041798;28;45432;-80
2022/04/06 10:56:12;;;;;;;;;3.33;2.67;;;;;25.69;26.07;100238.56;5049662;28;45305;-79
2022/04/06 10:58:55;;;;;;;;;3.00;3.00;;;;;25.17;27.01;100244.78;5052392;28;45543;-82
2022/04/06 11:01:31;;;;;;;;;3.00;3.00;;;;;24.44;27.52;100185.91;5043487;28;45547;-81
2022/04/06 11:04:00;;;;;;;;;4.33;4.33;;;;;25.66;26.50;100226.00;5052815;28;45475;-82
2022/04/06 11:06:40;;;;;;;;;4.00;4.00;;;;;25.17;26.92;100226.69;5050816;28;45393;-85
2022/04/06 11:12:09;;;;;;;;;2.67;2.67;;;;;26.08;25.90;100202.09;5050093;28;45519;-84
2022/04/06 11:14:34;;;;;;;;;4.00;2.00;;;;;25.40;26.64;100153.16;5050124;27;45470;-82
2022/04/06 11:17:00;;;;;;;;;4.00;4.00;;;;;26.26;25.81;100210.19;5054937;28;45507;-82
2022/04/06 11:19:26;;;;;;;;;4.00;4.00;;;;;25.60;26.21;100105.94;5060521;28;45416;-83
2022/04/06 11:21:56;;;;;;;;;4.33;4.33;;;;;26.18;25.89;100202.47;5049703;28;45493;-85
2022/04/06 11:24:23;;;;;;;;;6.00;4.00;;;;;26.24;26.04;100201.25;5048207;28;45437;-84
2022/04/06 11:26:48;;;;;;;;;6.00;6.00;;;;;25.82;26.34;100200.75;5048275;28;45645;-82
2022/04/06 11:29:14;;;;;;;;;5.67;4.00;;;;;26.15;26.49;100180.91;5056231;27;45490;-81
2022/04/06 11:31:54;;;;;;;;;5.00;4.00;;;;;26.06;26.32;100187.72;5048617;28;46030;-83
2022/04/06 11:34:49;;;;;;;;;5.67;5.00;;;;;25.07;27.25;100181.06;5048773;28;45539;-83
2022/04/06 11:37:14;;;;;;;;;4.00;4.00;;;;;25.32;27.12;100140.88;5047872;28;45533;-83